Time;durP1;ratioP1;P1;durP2;ratioP2;P2;SDS_P1;SDS_P2;PMS_P1;PMS_P2;Temp;Humidity;BMP_temperature;BMP_pressure;BME280_temperature;BME280_humidity;BME280_pressure;Samples;Min_cycle;Max_cycle;Signal;HPM_P1;HPM_P2
2022/11/25 09:12:18;;;;;;;;;15.75;10.00;;;;;12.01;77.76;101328.47;5011527;27;45379;-65
2022/11/25 09:14:43;;;;;;;;;10.25;7.25;;;;;13.61;74.27;101336.75;5010386;27;45517;-66
2022/11/25 09:17:10;;;;;;;;;12.50;8.50;;;;;14.74;67.79;101341.69;5010571;27;45396;-66
2022/11/25 09:19:36;;;;;;;;;9.50;9.50;;;;;14.56;65.99;101352.31;5007908;27;45591;-64
2022/11/25 09:22:01;;;;;;;;;10.33;4.67;;;;;14.30;68.10;101355.88;5005465;27;45504;-65
2022/11/25 09:24:27;;;;;;;;;6.67;6.67;;;;;14.57;68.75;101360.22;5005861;27;45436;-66
2022/11/25 09:26:53;;;;;;;;;8.67;8.00;;;;;15.40;65.22;101354.44;5006784;27;45862;-66
2022/11/25 09:29:19;;;;;;;;;9.00;6.67;;;;;15.57;63.11;101358.69;5020440;27;45460;-65
2022/11/25 09:31:44;;;;;;;;;14.00;6.00;;;;;15.48;64.24;101370.19;5005981;27;45597;-65
2022/11/25 09:34:10;;;;;;;;;9.67;6.00;;;;;15.51;64.02;101380.72;5005810;27;45925;-69
2022/11/25 09:36:36;;;;;;;;;10.00;6.33;;;;;15.66;63.26;101383.25;5008696;27;45483;-66
2022/11/25 09:39:02;;;;;;;;;10.33;5.00;;;;;15.77;63.26;101388.44;4992894;27;45577;-65
2022/11/25 09:48:05;;;;;;;;;15.67;8.33;;;;;16.16;60.35;101385.41;5008640;27;45375;-67
2022/11/25 09:51:14;;;;;;;;;10.00;7.67;;;;;16.29;61.13;101393.22;5005490;27;45512;-64
2022/11/25 09:53:49;;;;;;;;;8.67;6.67;;;;;16.80;59.63;101397.94;5009051;27;46331;-66
2022/11/25 09:56:42;;;;;;;;;7.67;7.67;;;;;16.94;59.06;101408.31;5005688;27;45443;-65
2022/11/25 09:59:19;;;;;;;;;13.00;8.33;;;;;16.84;56.96;101407.56;5005780;27;45542;-64
2022/11/25 10:01:48;;;;;;;;;10.67;10.00;;;;;17.01;57.49;101412.63;5010322;27;45568;-65
2022/11/25 10:04:30;;;;;;;;;10.33;8.67;;;;;17.24;56.65;101409.66;5009484;27;46365;-65
2022/11/25 10:07:00;;;;;;;;;10.00;7.00;;;;;17.74;55.63;101410.63;4983542;28;45814;-64
2022/11/25 10:09:31;;;;;;;;;7.67;5.00;;;;;18.26;54.97;101415.94;5005965;27;45703;-67
2022/11/25 10:12:06;;;;;;;;;7.00;4.67;;;;;18.67;52.97;101407.13;5006160;27;45744;-65
2022/11/25 10:14:46;;;;;;;;;4.67;4.67;;;;;18.96;51.85;101410.97;5004939;27;45575;-67
2022/11/25 10:17:37;;;;;;;;;3.67;3.67;;;;;19.51;50.56;101420.34;4988846;27;45407;-65
2022/11/25 10:20:14;;;;;;;;;9.00;4.00;;;;;20.70;47.77;101432.28;5008578;27;45423;-64
2022/11/25 10:23:00;;;;;;;;;5.00;4.00;;;;;21.49;45.67;101432.56;5002821;27;45393;-66
2022/11/25 10:25:44;;;;;;;;;3.33;3.00;;;;;21.88;44.38;101432.16;4975017;27;45688;-64
2022/11/25 10:28:16;;;;;;;;;7.00;4.00;;;;;22.13;43.45;101427.72;4993056;27;45477;-65
2022/11/25 10:30:51;;;;;;;;;5.00;3.00;;;;;22.59;43.72;101435.91;4992971;27;45560;-64
2022/11/25 10:33:29;;;;;;;;;6.00;3.67;;;;;23.48;41.31;101435.16;4992066;27;45945;-66
2022/11/25 10:35:57;;;;;;;;;5.67;4.00;;;;;24.93;38.78;101433.28;4992464;27;45692;-66
2022/11/25 10:38:49;;;;;;;;;3.00;2.00;;;;;25.24;37.63;101434.53;4992706;27;45623;-66
2022/11/25 10:41:20;;;;;;;;;9.50;3.25;;;;;25.16;37.34;101423.31;4980640;27;45459;-65
2022/11/25 10:43:58;;;;;;;;;5.50;4.75;;;;;25.38;36.83;101429.38;4994159;27;45609;-66
2022/11/25 10:46:40;;;;;;;;;4.50;4.25;;;;;26.67;35.07;101432.63;4963465;28;47768;-64
2022/11/25 10:49:13;;;;;;;;;5.00;5.00;;;;;28.12;32.82;101433.34;4993001;27;45416;-64
2022/11/25 10:51:44;;;;;;;;;7.00;3.75;;;;;29.19;30.73;101436.56;4992932;27;45494;-67
2022/11/25 10:54:23;;;;;;;;;6.50;5.00;;;;;30.57;28.91;101427.16;4993668;27;45461;-65
2022/11/25 10:57:00;;;;;;;;;4.00;2.75;;;;;31.52;28.06;101424.78;4996973;27;46162;-68
2022/11/25 10:59:33;;;;;;;;;3.60;2.60;;;;;32.40;26.59;101428.88;4997061;27;45436;-64
2022/11/25 11:02:18;;;;;;;;;5.00;4.00;;;;;32.94;25.98;101439.84;4993872;27;45661;-65
2022/11/25 11:05:01;;;;;;;;;4.25;2.75;;;;;33.29;25.14;101448.81;4990897;27;45583;-70
2022/11/25 11:07:33;;;;;;;;;4.40;3.20;;;;;33.56;25.02;101449.25;4996710;27;45531;-66
2022/11/25 11:10:12;;;;;;;;;4.00;2.20;;;;;33.78;24.57;101434.72;4993391;27;45322;-64
2022/11/25 11:12:54;;;;;;;;;3.00;2.20;;;;;33.34;24.73;101428.47;4990305;28;45383;-65
2022/11/25 11:15:23;;;;;;;;;4.00;3.40;;;;;30.94;26.62;101437.19;4996764;27;45538;-66
2022/11/25 11:17:49;;;;;;;;;6.00;3.20;;;;;27.98;30.09;101439.56;4992851;27;45492;-63
2022/11/25 11:20:32;;;;;;;;;3.50;3.50;;;;;25.96;33.58;101440.84;4992417;27;45556;-67
2022/11/25 11:23:09;;;;;;;;;5.00;4.40;;;;;24.45;36.13;101445.31;4995322;27;45573;-66
2022/11/25 11:25:39;;;;;;;;;7.00;4.00;;;;;23.28;37.29;101454.69;4996631;27;45331;-65
2022/11/25 11:28:29;;;;;;;;;4.50;4.25;;;;;22.48;38.82;101460.34;4996544;27;46505;-65
2022/11/25 11:31:00;;;;;;;;;7.00;4.00;;;;;21.88;39.72;101451.72;4996431;27;45378;-65
2022/11/25 11:33:54;;;;;;;;;4.50;3.50;;;;;22.54;39.53;101475.25;4993281;27;46318;-66
2022/11/25 11:36:37;;;;;;;;;4.75;3.75;;;;;24.31;36.44;101450.41;4992424;27;45381;-65
2022/11/25 11:39:34;;;;;;;;;6.75;3.00;;;;;26.52;33.25;101473.75;4991676;27;45946;-66
2022/11/25 11:42:12;;;;;;;;;7.50;4.00;;;;;26.54;32.37;101472.75;4992113;27;45393;-63
2022/11/25 11:45:03;;;;;;;;;4.00;4.00;;;;;26.65;31.90;101469.50;4995937;27;45458;-65
2022/11/25 11:48:11;;;;;;;;;5.25;3.25;;;;;24.30;35.51;101483.47;4993901;27;45436;-66
2022/11/25 11:50:42;;;;;;;;;5.75;3.00;;;;;22.54;37.85;101477.91;4992213;27;45507;-64
2022/11/25 11:53:26;;;;;;;;;5.00;3.25;;;;;21.32;40.53;101473.91;4992477;27;45486;-65
2022/11/25 11:56:04;;;;;;;;;7.00;4.00;;;;;20.50;42.11;101471.84;4991805;27;45826;-64
2022/11/25 11:59:01;;;;;;;;;6.33;2.67;;;;;19.92;43.76;101480.47;5037777;27;45346;-64
2022/11/25 12:01:39;;;;;;;;;4.33;3.67;;;;;19.38;45.03;101482.63;5059158;28;47266;-67
2022/11/25 12:04:17;;;;;;;;;5.33;2.33;;;;;18.93;45.89;101486.22;4991767;27;45299;-65
2022/11/25 12:06:55;;;;;;;;;4.00;3.00;;;;;18.56;46.42;101483.44;4994609;27;45440;-66
2022/11/25 12:09:24;;;;;;;;;3.67;3.00;;;;;18.29;47.25;101482.16;4995183;27;45542;-63
2022/11/25 12:11:59;;;;;;;;;6.00;4.33;;;;;17.86;47.62;101457.25;4995123;27;46031;-66
2022/11/25 12:14:46;;;;;;;;;5.00;2.00;;;;;17.79;48.42;101503.28;4994037;27;45848;-65
2022/11/25 12:17:22;;;;;;;;;2.33;1.67;;;;;17.44;49.01;101487.91;4990166;27;45815;-65
2022/11/25 12:20:16;;;;;;;;;5.00;4.00;;;;;17.43;49.59;101513.53;4995584;27;45520;-66
2022/11/25 12:22:49;;;;;;;;;6.00;3.67;;;;;17.28;49.74;101519.91;4983311;27;45574;-67
2022/11/25 12:25:26;;;;;;;;;3.00;3.00;;;;;17.08;50.01;101521.94;4995645;28;45330;-65
2022/11/25 12:28:02;;;;;;;;;5.33;3.00;;;;;16.89;50.44;101519.50;4991105;28;45838;-66
2022/11/25 12:30:44;;;;;;;;;4.67;2.67;;;;;16.54;51.00;101482.84;4991528;27;46065;-66
2022/11/25 12:33:25;;;;;;;;;3.00;2.67;;;;;16.62;51.40;101527.72;4991036;27;45327;-68
2022/11/25 12:36:21;;;;;;;;;4.67;4.00;;;;;16.54;51.41;101530.44;4990602;27;45817;-66
2022/11/25 12:39:01;;;;;;;;;2.00;2.00;;;;;16.41;51.00;101528.81;4973466;27;45547;-65
2022/11/25 12:42:00;;;;;;;;;3.00;2.00;;;;;16.23;51.87;101533.38;4989868;27;46455;-65
2022/11/25 12:44:51;;;;;;;;;5.00;3.33;;;;;16.14;51.86;101532.59;4990781;27;46050;-65
2022/11/25 12:47:16;;;;;;;;;4.33;3.00;;;;;16.04;52.67;101537.94;4993610;27;45461;-68
2022/11/25 12:49:45;;;;;;;;;4.67;2.00;;;;;15.83;52.84;101506.41;4991533;27;45397;-66
2022/11/25 12:52:29;;;;;;;;;6.33;4.00;;;;;15.89;53.75;101536.25;4991474;27;45684;-66
2022/11/25 12:55:19;;;;;;;;;2.67;1.00;;;;;15.65;53.32;101518.78;4984101;27;46415;-67
2022/11/25 12:58:12;;;;;;;;;2.00;0.67;;;;;15.72;53.42;101540.81;4988403;27;45510;-67
2022/11/25 13:01:16;;;;;;;;;3.33;3.33;;;;;15.62;54.15;101547.88;4995389;27;45294;-67
2022/11/25 13:03:50;;;;;;;;;4.00;3.00;;;;;15.54;54.20;101559.34;4987088;27;45731;-66
2022/11/25 13:06:37;;;;;;;;;4.67;2.00;;;;;15.45;54.26;101568.22;5013235;27;45449;-65
2022/11/25 13:09:22;;;;;;;;;4.00;3.00;;;;;15.21;54.43;101538.41;5013800;27;45496;-64
2022/11/25 13:12:09;;;;;;;;;3.67;2.00;;;;;15.26;54.76;101547.19;4982996;27;45488;-66
2022/11/25 13:14:56;;;;;;;;;5.67;3.00;;;;;15.35;54.66;101575.31;4993293;27;45504;-67
2022/11/25 13:17:28;;;;;;;;;4.00;2.33;;;;;15.24;54.89;101554.22;4972137;27;46885;-66
2022/11/25 13:20:27;;;;;;;;;3.00;1.67;;;;;15.39;55.00;101569.09;4989254;27;45938;-65
2022/11/25 13:23:22;;;;;;;;;4.67;2.00;;;;;15.35;54.76;101572.66;4982330;27;45572;-68
2022/11/25 13:25:50;;;;;;;;;2.00;1.33;;;;;15.32;55.05;101577.06;4989193;27;45458;-65
2022/11/25 13:28:35;;;;;;;;;2.00;1.67;;;;;15.29;55.48;101577.09;4990011;27;45743;-68
2022/11/25 13:31:24;;;;;;;;;3.67;2.33;;;;;14.96;55.23;101528.84;4992941;27;45515;-66
2022/11/25 13:34:01;;;;;;;;;7.67;4.00;;;;;15.19;55.78;101571.84;4992758;27;45408;-70
2022/11/25 13:36:44;;;;;;;;;2.00;2.00;;;;;15.06;55.48;101578.03;4987301;27;45398;-65
2022/11/25 13:39:15;;;;;;;;;8.67;4.67;;;;;14.94;55.15;101556.97;4958885;27;46901;-67
2022/11/25 13:41:48;;;;;;;;;5.00;3.00;;;;;15.08;54.97;101584.19;4990393;27;45444;-68
2022/11/25 13:44:50;;;;;;;;;3.33;3.00;;;;;15.09;55.05;101593.88;4992444;27;45482;-66
2022/11/25 13:47:39;;;;;;;;;4.33;3.00;;;;;15.12;55.02;101593.84;4991089;27;45834;-65
2022/11/25 13:50:17;;;;;;;;;4.00;3.00;;;;;14.85;55.33;101571.06;4981433;27;45616;-64
2022/11/25 13:52:47;;;;;;;;;2.00;1.67;;;;;14.87;55.03;101571.94;4995268;27;45206;-66
2022/11/25 13:55:16;;;;;;;;;2.00;2.00;;;;;14.98;55.11;101603.56;4991603;27;45375;-67
2022/11/25 13:58:05;;;;;;;;;3.00;3.00;;;;;14.87;55.68;101586.88;4978213;27;45416;-66
2022/11/25 14:00:48;;;;;;;;;8.00;5.33;;;;;14.85;55.94;101597.41;4981355;27;45400;-66
2022/11/25 14:03:20;;;;;;;;;4.00;2.67;;;;;14.83;56.33;101607.13;4992466;27;45366;-67
2022/11/25 14:05:59;;;;;;;;;4.00;3.00;;;;;14.81;56.43;101604.47;4992756;27;45834;-65
2022/11/25 14:09:00;;;;;;;;;8.00;4.00;;;;;14.76;56.36;101606.25;4992559;27;45430;-65
2022/11/25 14:11:52;;;;;;;;;4.67;4.00;;;;;14.75;56.80;101622.06;4983094;27;46278;-66
2022/11/25 14:14:41;;;;;;;;;6.33;3.00;;;;;14.69;56.45;101629.97;4959849;28;45434;-66
2022/11/25 14:17:38;;;;;;;;;4.33;1.33;;;;;14.64;56.69;101635.28;4975495;28;45976;-66
2022/11/25 14:20:25;;;;;;;;;5.33;1.00;;;;;14.61;56.61;101635.25;4986960;27;45555;-64
2022/11/25 14:23:15;;;;;;;;;8.67;3.33;;;;;14.59;56.82;101639.63;4993154;27;45610;-66
2022/11/25 14:25:51;;;;;;;;;3.33;2.00;;;;;14.48;57.24;101631.72;4996773;27;45335;-65
2022/11/25 14:28:26;;;;;;;;;2.33;2.00;;;;;14.57;57.20;101650.22;4997045;27;45402;-64
2022/11/25 14:30:59;;;;;;;;;4.00;1.00;;;;;14.53;56.78;101650.16;4990926;27;45375;-64
2022/11/25 14:33:33;;;;;;;;;1.67;1.67;;;;;14.49;56.54;101667.72;4993055;27;46168;-66
2022/11/25 14:36:11;;;;;;;;;6.00;5.00;;;;;14.38;56.68;101661.59;4996455;27;45344;-68
2022/11/25 14:38:45;;;;;;;;;6.33;3.33;;;;;14.40;56.96;101676.53;4996492;27;45350;-66
2022/11/25 14:41:25;;;;;;;;;7.00;3.67;;;;;14.34;57.10;101673.88;4992971;27;45472;-66
2022/11/25 14:44:00;;;;;;;;;3.00;2.33;;;;;14.30;57.95;101682.63;4992956;27;46309;-66
2022/11/25 14:46:26;;;;;;;;;5.00;2.33;;;;;14.18;58.21;101678.22;4996569;27;45424;-65
2022/11/25 14:48:57;;;;;;;;;3.00;2.00;;;;;14.12;58.46;101680.00;4993581;27;45691;-66
2022/11/25 14:51:32;;;;;;;;;2.00;2.00;;;;;14.15;58.44;101688.75;4990790;27;45495;-66
2022/11/25 14:53:58;;;;;;;;;4.67;2.00;;;;;14.11;57.80;101687.00;4974006;27;45719;-66
2022/11/25 14:56:33;;;;;;;;;2.00;2.00;;;;;14.15;57.94;101698.44;4991558;27;45625;-64
2022/11/25 14:59:03;;;;;;;;;2.67;2.67;;;;;14.17;58.12;101696.69;4992160;27;45481;-66
2022/11/25 15:01:35;;;;;;;;;4.33;2.00;;;;;14.22;58.21;101708.09;4995256;27;45527;-65
2022/11/25 15:04:14;;;;;;;;;5.33;1.67;;;;;14.17;57.77;101694.91;4996334;27;45319;-68
2022/11/25 15:06:47;;;;;;;;;2.67;1.33;;;;;14.14;57.98;101710.72;4992019;27;45838;-65
2022/11/25 15:09:26;;;;;;;;;7.67;2.33;;;;;14.08;58.78;101715.09;4991687;27;45491;-66
2022/11/25 15:11:56;;;;;;;;;1.67;1.67;;;;;14.06;59.10;101716.84;4991894;27;45419;-65
2022/11/25 15:14:33;;;;;;;;;4.67;3.00;;;;;13.99;58.63;101718.56;4992557;27;46102;-65
2022/11/25 15:17:08;;;;;;;;;3.00;3.00;;;;;14.03;58.47;101733.50;4992449;27;45413;-65
2022/11/25 15:19:35;;;;;;;;;1.00;1.00;;;;;13.75;58.76;101693.91;4993308;27;45870;-65
2022/11/25 15:22:04;;;;;;;;;2.67;2.00;;;;;14.07;58.10;101744.94;4978251;27;45532;-65
2022/11/25 15:24:39;;;;;;;;;3.00;1.00;;;;;13.95;58.10;101733.50;4992533;27;46270;-67
2022/11/25 15:27:38;;;;;;;;;3.67;1.00;;;;;13.85;57.70;101715.88;4973637;27;45311;-67
2022/11/25 15:30:21;;;;;;;;;5.67;2.00;;;;;14.06;58.13;101765.13;4988074;27;45716;-67
2022/11/25 15:32:48;;;;;;;;;3.67;1.00;;;;;13.84;57.98;101737.81;4994669;27;45450;-66
2022/11/25 15:35:18;;;;;;;;;2.67;1.67;;;;;13.91;57.99;101767.72;4995910;27;45317;-70
2022/11/25 15:37:44;;;;;;;;;1.00;1.00;;;;;13.90;59.58;101779.09;4993110;27;45387;-66
2022/11/25 15:40:32;;;;;;;;;4.00;1.67;;;;;13.91;58.16;101778.25;4992455;27;45500;-65
2022/11/25 15:43:01;;;;;;;;;2.67;2.00;;;;;13.82;58.85;101776.44;4991752;27;45466;-65
2022/11/25 15:45:42;;;;;;;;;3.00;1.33;;;;;13.75;58.79;101779.91;4991185;27;45857;-65
2022/11/25 15:48:23;;;;;;;;;3.00;1.33;;;;;13.73;58.96;101789.53;4992002;27;45424;-67
2022/11/25 15:50:49;;;;;;;;;2.00;2.00;;;;;13.46;59.24;101763.94;4993882;27;45314;-67
2022/11/25 15:53:24;;;;;;;;;1.33;1.33;;;;;13.64;59.32;101802.66;4991492;27;45827;-66
2022/11/25 15:55:51;;;;;;;;;2.33;1.00;;;;;13.45;59.01;101789.34;4991516;27;46668;-67
2022/11/25 15:58:23;;;;;;;;;2.00;1.00;;;;;13.54;59.24;101823.66;4991397;27;45555;-67
2022/11/25 16:01:05;;;;;;;;;4.67;1.00;;;;;13.40;59.38;101798.97;4991398;27;45751;-64
2022/11/25 16:03:34;;;;;;;;;2.33;1.00;;;;;13.41;60.23;101813.03;4993349;27;45413;-66
2022/11/25 16:06:01;;;;;;;;;1.33;1.33;;;;;13.39;60.26;101820.03;4992486;27;46052;-65
2022/11/25 16:08:37;;;;;;;;;6.00;1.67;;;;;13.41;60.04;101826.19;4990408;27;45490;-64
2022/11/25 16:11:18;;;;;;;;;4.33;1.00;;;;;13.31;59.86;101827.84;4991024;27;45466;-65
2022/11/25 16:13:45;;;;;;;;;1.00;1.00;;;;;13.34;60.08;101844.56;4991246;27;45520;-65
2022/11/25 16:16:17;;;;;;;;;3.67;2.00;;;;;13.25;60.62;101836.53;4991140;27;45378;-67
2022/11/25 16:19:01;;;;;;;;;3.00;2.00;;;;;13.25;61.00;101847.06;4993810;27;45280;-66
2022/11/25 16:21:44;;;;;;;;;4.00;2.67;;;;;13.24;60.98;101854.94;4995019;27;45445;-73
2022/11/25 16:24:33;;;;;;;;;1.00;1.00;;;;;13.21;60.99;101854.91;4976125;28;45423;-65
2022/11/25 16:27:15;;;;;;;;;1.67;1.00;;;;;13.16;61.46;101850.50;4971216;27;46262;-67
2022/11/25 16:30:04;;;;;;;;;1.67;1.67;;;;;13.19;61.76;101860.16;4978287;28;45569;-65
2022/11/25 16:32:50;;;;;;;;;3.00;2.33;;;;;13.18;61.59;101868.94;5493068;22;46449;-75
2022/11/25 16:35:20;;;;;;;;;2.33;2.33;;;;;13.08;62.25;101861.81;5069515;27;45778;-76
2022/11/25 16:37:47;;;;;;;;;9.67;3.33;;;;;12.99;62.04;101857.34;5072999;27;46099;-67
2022/11/25 16:40:14;;;;;;;;;6.67;6.00;;;;;13.01;63.09;101865.28;5057860;27;45357;-62
2022/11/25 16:42:40;;;;;;;;;4.00;4.00;;;;;13.08;62.72;101878.50;5055290;28;45417;-79
2022/11/25 16:45:18;;;;;;;;;4.00;3.00;;;;;13.06;62.82;101887.22;5057619;28;45903;-77
2022/11/25 16:47:45;;;;;;;;;4.00;4.00;;;;;13.07;62.88;101889.84;5077429;27;46344;-83
2022/11/25 16:50:13;;;;;;;;;4.67;4.00;;;;;13.10;63.86;101891.66;5073839;27;45476;-76
2022/11/25 16:52:39;;;;;;;;;9.33;5.00;;;;;12.97;63.92;101873.97;5055319;27;45394;-70
2022/11/25 16:55:05;;;;;;;;;5.00;3.00;;;;;12.90;63.87;101870.41;5051072;27;45390;-64
2022/11/25 16:57:33;;;;;;;;;6.00;4.00;;;;;12.98;65.75;101887.16;5071958;27;45520;-61
2022/11/25 17:00:06;;;;;;;;;7.33;4.00;;;;;12.98;65.39;101888.88;5070838;27;45555;-62
2022/11/25 17:02:32;;;;;;;;;10.00;6.67;;;;;13.02;65.55;101894.19;5071999;27;45511;-64
2022/11/25 17:05:06;;;;;;;;;11.67;8.00;;;;;13.04;65.77;101902.09;5055221;28;45746;-71
2022/11/25 17:07:31;;;;;;;;;6.00;6.00;;;;;13.03;65.96;101895.97;4966974;28;45416;-63
2022/11/25 17:09:57;;;;;;;;;7.33;4.67;;;;;12.81;65.52;101865.03;4977062;28;45416;-61
2022/11/25 17:12:28;;;;;;;;;5.00;4.00;;;;;12.97;65.38;101911.69;4976901;28;45473;-61
2022/11/25 17:14:58;;;;;;;;;3.00;3.00;;;;;12.96;64.94;101917.81;4985673;28;45324;-70
2022/11/25 17:17:25;;;;;;;;;8.00;4.00;;;;;12.93;65.17;101915.13;4976766;28;45613;-64
2022/11/25 17:19:51;;;;;;;;;9.33;5.00;;;;;12.87;65.25;101915.94;4971354;28;45648;-62
2022/11/25 17:22:20;;;;;;;;;8.00;4.00;;;;;12.88;66.10;101925.63;4971489;28;45801;-61
2022/11/25 17:24:45;;;;;;;;;6.00;3.67;;;;;12.84;65.06;101931.69;4972124;28;45449;-67
2022/11/25 17:27:44;;;;;;;;;4.33;4.00;;;;;12.80;65.05;101931.66;4973344;28;45606;-78
2022/11/25 17:30:17;;;;;;;;;4.67;4.00;;;;;12.85;64.80;101949.22;4968624;28;45469;-75
2022/11/25 17:32:44;;;;;;;;;5.33;4.00;;;;;12.84;64.36;101954.50;4973287;28;45356;-76
2022/11/25 17:35:20;;;;;;;;;7.67;4.00;;;;;12.56;64.83;101905.94;4975689;28;45352;-77
2022/11/25 17:37:47;;;;;;;;;2.67;2.67;;;;;12.82;64.60;101959.72;4961568;28;47176;-77
2022/11/25 17:40:13;;;;;;;;;7.67;3.00;;;;;12.82;64.61;101950.97;4977473;28;45797;-78
2022/11/25 17:42:40;;;;;;;;;5.00;4.00;;;;;12.80;65.35;101960.56;4973852;28;45592;-77
2022/11/25 17:45:15;;;;;;;;;6.67;3.00;;;;;12.79;64.82;101962.31;4973600;28;45612;-77
2022/11/25 17:47:41;;;;;;;;;5.33;3.00;;;;;12.38;64.61;101898.69;5048001;22;47600;-75
2022/11/25 17:50:19;;;;;;;;;4.67;3.33;;;;;12.77;64.95;101976.31;4995089;28;45672;-77
2022/11/25 17:52:45;;;;;;;;;6.00;4.67;;;;;12.44;64.05;101935.56;4996778;27;45408;-78
2022/11/25 17:55:12;;;;;;;;;5.67;4.33;;;;;12.69;64.81;101981.44;4994464;28;45785;-77
2022/11/25 17:57:38;;;;;;;;;5.00;4.00;;;;;12.65;64.56;101985.78;4994509;28;45513;-77
2022/11/25 18:00:06;;;;;;;;;7.33;6.00;;;;;12.55;64.57;101973.38;4993193;28;45467;-69
2022/11/25 18:02:31;;;;;;;;;5.33;3.67;;;;;12.61;64.23;101991.88;4981845;28;45411;-67
2022/11/25 18:04:57;;;;;;;;;5.67;3.67;;;;;12.58;64.60;101991.84;5002436;28;45371;-67
2022/11/25 18:07:22;;;;;;;;;7.33;3.33;;;;;12.52;64.09;101989.97;4993465;28;45985;-66
2022/11/25 18:09:48;;;;;;;;;3.00;2.00;;;;;12.52;64.78;101997.88;4992595;28;45366;-65
2022/11/25 18:12:26;;;;;;;;;6.67;3.67;;;;;12.51;64.30;102008.38;4992889;28;45431;-67
2022/11/25 18:14:53;;;;;;;;;4.33;4.33;;;;;12.50;65.40;102007.50;4993821;28;45566;-68
2022/11/25 18:17:19;;;;;;;;;4.00;3.33;;;;;12.49;65.50;102010.09;4996700;28;46398;-66
2022/11/25 18:19:47;;;;;;;;;7.33;3.33;;;;;12.51;67.29;102019.75;4996759;28;45484;-66
2022/11/25 18:22:15;;;;;;;;;6.00;4.33;;;;;12.46;65.51;102010.06;4992677;28;45440;-66
2022/11/25 18:24:42;;;;;;;;;3.33;3.33;;;;;12.53;65.12;102030.31;4992492;28;45440;-63
2022/11/25 18:27:26;;;;;;;;;5.33;5.33;;;;;12.49;65.67;102025.88;4990458;27;47419;-68
2022/11/25 18:29:52;;;;;;;;;7.67;7.00;;;;;12.43;65.45;102031.91;4992638;28;45752;-65
2022/11/25 18:32:19;;;;;;;;;11.33;8.00;;;;;12.43;65.09;102031.00;4992804;28;45402;-62
2022/11/25 18:34:45;;;;;;;;;8.33;6.67;;;;;12.38;65.37;102033.56;4992444;28;45452;-64
2022/11/25 18:37:11;;;;;;;;;13.33;7.33;;;;;12.41;65.31;102033.63;4992252;28;45802;-65
2022/11/25 18:39:36;;;;;;;;;11.00;7.00;;;;;12.46;65.14;102039.84;5003657;28;45480;-63
2022/11/25 18:42:05;;;;;;;;;6.33;4.33;;;;;12.46;65.18;102044.22;4989031;28;45906;-63
2022/11/25 18:44:40;;;;;;;;;8.50;5.75;;;;;12.38;65.38;102053.72;4992003;28;45682;-64
2022/11/25 18:47:10;;;;;;;;;10.67;8.00;;;;;12.32;65.36;102045.75;4991031;28;46445;-69
2022/11/25 18:49:36;;;;;;;;;16.33;8.33;;;;;12.32;65.18;102058.88;4990193;28;45414;-65
2022/11/25 18:52:01;;;;;;;;;15.25;9.50;;;;;12.28;65.11;102060.56;4991777;28;45378;-66
2022/11/25 18:54:27;;;;;;;;;26.00;22.25;;;;;12.29;65.75;102073.75;4994621;28;45360;-62
2022/11/25 18:56:53;;;;;;;;;20.00;16.75;;;;;12.29;64.99;102071.13;4993215;28;46735;-64
2022/11/25 18:59:27;;;;;;;;;14.75;12.25;;;;;12.28;65.33;102071.06;5005889;28;45381;-65
2022/11/25 19:01:53;;;;;;;;;15.00;10.00;;;;;12.28;65.31;102071.94;4992502;28;45707;-66
2022/11/25 19:04:18;;;;;;;;;11.50;11.50;;;;;12.26;65.30;102072.78;4992166;28;45327;-70
2022/11/25 19:06:44;;;;;;;;;13.25;10.25;;;;;12.23;65.33;102076.25;4991734;28;46617;-68
2022/11/25 19:09:10;;;;;;;;;10.25;8.75;;;;;12.24;65.54;102088.53;4994189;28;45391;-69
2022/11/25 19:11:41;;;;;;;;;9.33;7.33;;;;;12.16;65.29;102095.41;4996622;28;45442;-68
2022/11/25 19:14:16;;;;;;;;;10.50;10.00;;;;;12.05;65.96;102078.56;4996981;28;45488;-67
2022/11/25 19:16:42;;;;;;;;;10.33;10.33;;;;;12.12;65.72;102096.19;4990896;28;45640;-66
2022/11/25 19:19:14;;;;;;;;;11.75;10.25;;;;;12.06;65.15;102094.34;4992050;28;45708;-66
2022/11/25 19:21:40;;;;;;;;;11.50;10.00;;;;;12.06;66.07;102107.47;4993780;28;45434;-68
2022/11/25 19:24:12;;;;;;;;;16.50;10.75;;;;;12.06;66.00;102107.47;5011237;27;45544;-67
2022/11/25 19:26:44;;;;;;;;;13.75;13.00;;;;;12.03;65.79;102102.19;4995374;28;45612;-66
2022/11/25 19:29:17;;;;;;;;;16.00;13.00;;;;;11.98;66.09;102110.81;5006320;28;45328;-68
2022/11/25 19:31:43;;;;;;;;;16.25;12.50;;;;;12.02;66.22;102117.91;4991253;28;45434;-62
2022/11/25 19:34:34;;;;;;;;;12.50;11.75;;;;;11.96;66.35;102118.69;4992030;28;45415;-63
2022/11/25 19:36:59;;;;;;;;;19.00;13.25;;;;;11.91;66.30;102119.44;5075932;27;47943;-64
2022/11/25 19:39:26;;;;;;;;;15.50;11.50;;;;;11.92;66.57;102129.09;4990839;28;45477;-64
2022/11/25 19:41:53;;;;;;;;;15.00;13.25;;;;;11.91;66.78;102129.94;5006999;28;45511;-66
2022/11/25 19:44:19;;;;;;;;;17.00;14.50;;;;;11.87;67.17;102135.16;4993969;28;45375;-63
2022/11/25 19:46:47;;;;;;;;;16.50;13.75;;;;;11.88;66.82;102141.28;5005121;27;45375;-62
2022/11/25 19:49:18;;;;;;;;;12.75;11.25;;;;;11.88;66.86;102150.03;4984344;27;45835;-67
2022/11/25 19:51:45;;;;;;;;;17.50;13.75;;;;;11.79;67.10;102133.19;4974412;27;45474;-62
2022/11/25 19:54:13;;;;;;;;;15.00;14.25;;;;;11.86;67.13;102161.31;4980986;27;46792;-63
2022/11/25 19:56:39;;;;;;;;;17.00;13.25;;;;;11.78;67.33;102148.06;5074087;27;46257;-66
2022/11/25 19:59:05;;;;;;;;;16.00;15.50;;;;;11.79;66.84;102157.72;4992421;28;45496;-64
2022/11/25 20:01:34;;;;;;;;;21.00;16.00;;;;;11.76;67.74;102162.88;4995702;28;45408;-63
2022/11/25 20:04:02;;;;;;;;;18.75;14.00;;;;;11.72;67.65;102174.19;4990669;28;45370;-64
2022/11/25 20:06:29;;;;;;;;;17.75;14.50;;;;;11.66;67.74;102163.56;4989731;27;45457;-68
2022/11/25 20:09:01;;;;;;;;;18.00;15.75;;;;;11.71;67.22;102177.66;4994618;28;45381;-63
2022/11/25 20:11:27;;;;;;;;;15.50;15.25;;;;;11.66;67.90;102179.31;4992722;28;45395;-65
2022/11/25 20:13:53;;;;;;;;;18.50;15.50;;;;;11.63;67.85;102177.50;4991948;28;45391;-65
2022/11/25 20:16:22;;;;;;;;;18.75;17.25;;;;;11.67;68.08;102184.59;4990972;28;45527;-65
2022/11/25 20:18:50;;;;;;;;;22.50;16.50;;;;;11.65;68.36;102190.63;4994730;28;45667;-64
2022/11/25 20:21:38;;;;;;;;;14.75;13.75;;;;;11.52;68.62;102188.63;4990737;28;45470;-68
2022/11/25 20:24:11;;;;;;;;;20.25;16.75;;;;;11.57;68.18;102197.47;4993545;28;45341;-67
2022/11/25 20:26:40;;;;;;;;;21.00;18.75;;;;;11.55;68.53;102194.81;4992243;28;45794;-71
2022/11/25 20:29:31;;;;;;;;;21.00;20.50;;;;;11.58;68.52;102204.50;4990780;28;45565;-65
2022/11/25 20:31:57;;;;;;;;;27.25;23.25;;;;;11.58;68.44;102208.03;4995894;27;45596;-69
2022/11/25 20:34:23;;;;;;;;;24.50;19.00;;;;;11.51;68.77;102203.50;4994133;28;45687;-63
2022/11/25 20:36:49;;;;;;;;;25.25;19.75;;;;;11.51;68.86;102211.38;4990591;28;45886;-63
2022/11/25 20:39:17;;;;;;;;;23.25;17.00;;;;;11.41;68.94;102199.78;4990974;28;45548;-63
2022/11/25 20:41:48;;;;;;;;;23.00;19.25;;;;;11.51;68.64;102228.81;4991189;28;45380;-67
2022/11/25 20:44:14;;;;;;;;;77.75;57.25;;;;;11.48;68.40;102218.28;4977862;28;45487;-64
2022/11/25 20:46:39;;;;;;;;;89.00;79.00;;;;;11.53;68.37;102233.28;4989411;28;47954;-67
2022/11/25 20:49:22;;;;;;;;;63.25;49.50;;;;;11.53;68.48;102237.63;4993001;28;45561;-63
2022/11/25 20:51:48;;;;;;;;;48.25;36.50;;;;;11.50;68.87;102234.94;4993566;28;45448;-64
2022/11/25 20:54:14;;;;;;;;;41.50;31.75;;;;;11.37;68.89;102231.16;4992758;28;45496;-63
2022/11/25 20:56:39;;;;;;;;;27.50;23.50;;;;;11.33;69.50;102238.06;4993557;28;45367;-67
2022/11/25 20:59:21;;;;;;;;;27.50;22.50;;;;;11.33;69.68;102242.44;4990450;28;45710;-65
2022/11/25 21:01:48;;;;;;;;;25.25;22.00;;;;;11.35;69.26;102246.84;4992483;28;45374;-67
2022/11/25 21:04:14;;;;;;;;;21.50;15.75;;;;;11.34;69.31;102249.44;4991718;28;45562;-64
2022/11/25 21:06:40;;;;;;;;;21.00;18.75;;;;;11.40;68.92;102258.34;4990098;28;45465;-65
2022/11/25 21:09:15;;;;;;;;;19.75;16.75;;;;;11.43;69.36;102262.78;4988541;28;45558;-67
2022/11/25 21:11:40;;;;;;;;;22.75;18.50;;;;;11.44;68.98;102264.56;4988968;27;45348;-64
2022/11/25 21:14:13;;;;;;;;;26.00;17.00;;;;;11.42;68.87;102267.13;4992251;28;45640;-64